createdAt,value
2022-11-17T00:01:25.355Z,96600.37
2022-11-17T00:03:53.372Z,96600.64
2022-11-17T00:06:21.235Z,96601.82
2022-11-17T00:08:49.453Z,96600.30
2022-11-17T00:11:18.109Z,96607.67
2022-11-17T00:14:04.519Z,96610.31
2022-11-17T00:16:32.538Z,96605.43
2022-11-17T00:19:18.650Z,96601.44
2022-11-17T00:21:46.526Z,96602.40
2022-11-17T00:24:16.785Z,96603.09
2022-11-17T00:27:02.614Z,96602.73
2022-11-17T00:29:31.138Z,96604.89
2022-11-17T00:32:17.957Z,96612.55
2022-11-17T00:34:45.903Z,96610.15
2022-11-17T00:37:15.260Z,96613.80
2022-11-17T00:39:43.110Z,96607.21
2022-11-17T00:42:11.009Z,96607.27
2022-11-17T00:44:38.829Z,96606.48
2022-11-17T00:47:06.702Z,96606.86
2022-11-17T00:49:34.676Z,96601.73
2022-11-17T00:52:02.985Z,96590.23
2022-11-17T00:54:31.029Z,96589.34
2022-11-17T00:56:58.958Z,96586.02
2022-11-17T00:59:26.834Z,96587.11
2022-11-17T01:01:54.772Z,96581.88
2022-11-17T01:04:22.815Z,96584.73
2022-11-17T01:06:50.764Z,96582.27
2022-11-17T01:09:21.274Z,96586.14
2022-11-17T01:11:50.714Z,96591.61
2022-11-17T01:14:22.510Z,96595.14
2022-11-17T01:16:51.191Z,96595.11
2022-11-17T01:19:19.638Z,96592.04
2022-11-17T01:21:47.968Z,96590.05
2022-11-17T01:24:16.945Z,96586.95
2022-11-17T01:26:46.641Z,96589.23
2022-11-17T01:29:18.907Z,96585.64
2022-11-17T01:31:51.939Z,96582.61
2022-11-17T01:34:20.270Z,96577.59
2022-11-17T01:37:06.700Z,96580.02
2022-11-17T01:39:34.622Z,96575.76
2022-11-17T01:42:05.611Z,96578.33
2022-11-17T01:44:36.573Z,96580.10
2022-11-17T01:47:06.338Z,96586.09
2022-11-17T01:49:34.288Z,96591.77
2022-11-17T01:52:07.865Z,96593.85
2022-11-17T01:54:40.532Z,96591.67
2022-11-17T01:57:14.956Z,96590.06
2022-11-17T01:59:48.993Z,96590.78
2022-11-17T02:02:17.565Z,96592.52
2022-11-17T02:04:58.894Z,96595.98
2022-11-17T02:07:30.175Z,96589.19
2022-11-17T02:10:00.929Z,96582.60
2022-11-17T02:12:32.184Z,96570.77
2022-11-17T02:15:01.103Z,96567.35
2022-11-17T02:17:36.326Z,96562.83
2022-11-17T02:20:24.165Z,96558.10
2022-11-17T02:23:18.645Z,96556.61
2022-11-17T02:26:27.680Z,96561.46
2022-11-17T02:29:16.006Z,96573.83
2022-11-17T02:32:04.970Z,96572.92
2022-11-17T02:35:04.063Z,96569.73
2022-11-17T02:37:47.707Z,96568.38
2022-11-17T02:40:24.723Z,96569.13
2022-11-17T02:43:20.337Z,96566.52
2022-11-17T02:45:56.416Z,96566.29
2022-11-17T02:48:29.899Z,96570.85
2022-11-17T02:50:59.876Z,96577.80
2022-11-17T02:53:29.674Z,96575.99
2022-11-17T02:56:00.662Z,96576.66
2022-11-17T02:58:28.692Z,96578.28
2022-11-17T03:01:03.973Z,96576.99
2022-11-17T03:03:55.573Z,96577.23
2022-11-17T03:06:56.839Z,96579.15
2022-11-17T03:09:55.264Z,96582.12
2022-11-17T03:12:34.301Z,96586.14
2022-11-17T03:15:05.310Z,96582.46
2022-11-17T03:17:59.834Z,96579.48
2022-11-17T03:20:33.430Z,96580.45
2022-11-17T03:23:22.730Z,96579.77
2022-11-17T03:25:55.472Z,96580.04
2022-11-17T03:28:29.652Z,96579.25
2022-11-17T03:30:59.816Z,96581.69
2022-11-17T03:33:29.087Z,96580.23
2022-11-17T03:36:26.498Z,96580.73
2022-11-17T03:39:14.666Z,96580.92
2022-11-17T03:41:46.981Z,96581.45
2022-11-17T03:44:16.505Z,96579.41
2022-11-17T03:46:48.104Z,96578.09
2022-11-17T03:49:29.686Z,96577.38
2022-11-17T03:51:57.891Z,96574.02
2022-11-17T03:54:25.994Z,96571.89
2022-11-17T03:57:11.069Z,96572.42
2022-11-17T04:00:04.457Z,96572.10
2022-11-17T04:02:42.169Z,96574.72
2022-11-17T04:05:11.646Z,96576.60
2022-11-17T04:07:45.182Z,96575.44
2022-11-17T04:10:25.870Z,96572.93
2022-11-17T04:13:12.866Z,96568.56
2022-11-17T04:15:59.342Z,96572.77
2022-11-17T04:18:27.419Z,96572.20
2022-11-17T04:20:57.174Z,96568.55
2022-11-17T04:23:25.735Z,96572.48
2022-11-17T04:26:14.228Z,96570.63
2022-11-17T04:28:47.750Z,96575.56
2022-11-17T04:31:25.461Z,96578.83
2022-11-17T04:33:57.652Z,96580.54
2022-11-17T04:36:30.771Z,96578.94
2022-11-17T04:39:00.026Z,96576.55
2022-11-17T04:41:48.371Z,96578.23
2022-11-17T04:44:17.760Z,96580.18
2022-11-17T04:46:46.265Z,96583.23
2022-11-17T04:49:15.753Z,96581.85
2022-11-17T04:51:44.452Z,96579.46
2022-11-17T04:54:15.833Z,96582.37
2022-11-17T04:56:44.460Z,96581.58
2022-11-17T04:59:12.703Z,96576.81
2022-11-17T05:01:41.014Z,96582.73
2022-11-17T05:04:11.005Z,96587.64
2022-11-17T05:06:45.204Z,96586.69
2022-11-17T05:09:16.052Z,96587.23
2022-11-17T05:12:02.995Z,96583.29
2022-11-17T05:14:30.849Z,96584.67
2022-11-17T05:17:11.195Z,96588.48
2022-11-17T05:19:45.101Z,96593.73
2022-11-17T05:22:37.948Z,96596.39
2022-11-17T05:25:06.348Z,96595.85
2022-11-17T05:27:34.963Z,96595.62
2022-11-17T05:30:05.846Z,96594.55
2022-11-17T05:32:33.914Z,96595.23
2022-11-17T05:35:01.828Z,96584.25
2022-11-17T05:37:29.728Z,96582.70
2022-11-17T05:39:57.557Z,96586.58
2022-11-17T05:42:25.536Z,96588.85
2022-11-17T05:44:53.422Z,96589.02
2022-11-17T05:47:26.843Z,96591.38
2022-11-17T05:50:04.969Z,96595.65
2022-11-17T05:52:40.830Z,96602.46
2022-11-17T05:55:08.802Z,96610.27
2022-11-17T05:57:45.115Z,96610.72
2022-11-17T06:00:25.253Z,96618.05
2022-11-17T06:03:00.573Z,96622.33
2022-11-17T06:05:28.689Z,96631.17
2022-11-17T06:07:59.888Z,96630.15
2022-11-17T06:10:28.017Z,96629.64
2022-11-17T06:12:55.975Z,96630.02
2022-11-17T06:15:23.927Z,96634.17
2022-11-17T06:17:59.548Z,96639.58
2022-11-17T06:20:37.826Z,96645.79
2022-11-17T06:23:09.150Z,96647.13
2022-11-17T06:26:24.717Z,96645.27
2022-11-17T06:28:53.185Z,96644.08
2022-11-17T06:31:21.349Z,96647.48
2022-11-17T06:34:47.979Z,96642.28
2022-11-17T06:37:18.627Z,96641.60
2022-11-17T06:39:46.591Z,96641.92
2022-11-17T06:42:14.556Z,96644.36
2022-11-17T06:44:42.592Z,96645.45
2022-11-17T06:47:10.477Z,96648.77
2022-11-17T06:49:38.433Z,96650.70
2022-11-17T06:52:06.313Z,96657.79
2022-11-17T06:54:34.287Z,96660.55
2022-11-17T06:57:02.351Z,96666.46
2022-11-17T06:59:30.436Z,96667.83
2022-11-17T07:01:58.362Z,96665.19
2022-11-17T07:04:26.456Z,96661.77
2022-11-17T07:06:54.548Z,96657.90
2022-11-17T07:09:22.616Z,96659.02
2022-11-17T07:11:50.726Z,96658.61
2022-11-17T07:14:18.712Z,96655.80
2022-11-17T07:16:46.710Z,96662.27
2022-11-17T07:19:14.621Z,96660.96
2022-11-17T07:21:42.621Z,96656.98
2022-11-17T07:24:10.735Z,96660.64
2022-11-17T07:26:38.831Z,96659.08
2022-11-17T07:29:06.997Z,96661.10
2022-11-17T07:31:36.745Z,96663.98
2022-11-17T07:34:04.824Z,96664.31
2022-11-17T07:36:33.619Z,96673.07
2022-11-17T07:39:01.721Z,96676.63
2022-11-17T07:41:29.767Z,96678.64
2022-11-17T07:43:58.843Z,96678.69
2022-11-17T07:46:26.827Z,96683.32
2022-11-17T07:48:55.464Z,96680.49
2022-11-17T07:51:23.509Z,96677.00
2022-11-17T07:53:51.572Z,96666.38
2022-11-17T07:56:19.561Z,96670.03
2022-11-17T07:58:47.561Z,96670.09
2022-11-17T08:01:15.672Z,96671.95
2022-11-17T08:03:44.518Z,96671.93
2022-11-17T08:06:12.786Z,96666.40
2022-11-17T08:08:40.875Z,96664.28
2022-11-17T08:11:11.258Z,96662.89
2022-11-17T08:13:40.720Z,96665.70
2022-11-17T08:16:10.352Z,96663.01
2022-11-17T08:18:40.129Z,96661.45
2022-11-17T08:21:10.768Z,96665.15
2022-11-17T08:23:38.781Z,96667.16
2022-11-17T08:26:09.445Z,96667.33
2022-11-17T08:28:38.613Z,96669.52
2022-11-17T08:31:07.784Z,96673.75
2022-11-17T08:33:36.173Z,96675.38
2022-11-17T08:36:07.237Z,96676.54
2022-11-17T08:38:36.367Z,96683.41
2022-11-17T08:41:07.033Z,96676.86
2022-11-17T08:43:35.532Z,96672.71
2022-11-17T08:46:03.672Z,96674.37
2022-11-17T08:48:31.882Z,96675.24
2022-11-17T08:51:06.057Z,96673.27
2022-11-17T08:53:34.522Z,96680.17
2022-11-17T08:56:07.375Z,96681.39
2022-11-17T08:58:40.295Z,96680.86
2022-11-17T09:01:13.212Z,96682.52
2022-11-17T09:03:46.196Z,96683.98
2022-11-17T09:06:16.360Z,96685.39
2022-11-17T09:08:46.602Z,96691.58
2022-11-17T09:11:16.848Z,96695.23
2022-11-17T09:13:47.031Z,96700.42
2022-11-17T09:16:16.425Z,96697.70
2022-11-17T09:18:44.627Z,96704.99
2022-11-17T09:21:15.606Z,96705.96
2022-11-17T09:23:43.815Z,96707.91
2022-11-17T09:26:14.447Z,96704.85
2022-11-17T09:28:44.199Z,96706.32
2022-11-17T09:31:16.483Z,96701.05
2022-11-17T09:33:44.998Z,96700.46
2022-11-17T09:36:15.093Z,96693.10
2022-11-17T09:38:43.106Z,96694.10
2022-11-17T09:41:43.742Z,96689.70
2022-11-17T09:44:40.019Z,96686.91
2022-11-17T09:47:14.392Z,96690.39
2022-11-17T09:50:05.333Z,96689.06
2022-11-17T09:52:45.897Z,96691.71
2022-11-17T09:55:34.107Z,96692.00
2022-11-17T09:58:27.080Z,96691.60
2022-11-17T10:00:55.927Z,96693.81
2022-11-17T10:03:41.767Z,96692.22
2022-11-17T10:06:18.291Z,96694.68
2022-11-17T10:08:51.157Z,96693.08
2022-11-17T10:11:35.037Z,96694.54
2022-11-17T10:14:08.828Z,96694.92
2022-11-17T10:16:38.840Z,96699.63
2022-11-17T10:19:27.755Z,96702.75
2022-11-17T10:22:01.666Z,96710.71
2022-11-17T10:24:50.775Z,96712.60
2022-11-17T10:27:23.217Z,96711.35
2022-11-17T10:30:04.514Z,96714.35
2022-11-17T10:32:36.687Z,96713.72
2022-11-17T10:35:15.332Z,96716.75
2022-11-17T10:37:56.037Z,96712.26
2022-11-17T10:40:27.291Z,96703.81
2022-11-17T10:43:18.641Z,96701.52
2022-11-17T10:45:53.473Z,96699.59
2022-11-17T10:48:27.315Z,96705.46
2022-11-17T10:51:09.341Z,96712.17
2022-11-17T10:53:45.769Z,96707.19
2022-11-17T10:56:19.915Z,96709.58
2022-11-17T10:59:13.990Z,96703.64
2022-11-17T11:01:49.851Z,96699.88
2022-11-17T11:05:04.916Z,96697.23
2022-11-17T11:07:33.045Z,96701.55
2022-11-17T11:10:18.111Z,96703.73
2022-11-17T11:13:33.490Z,96706.44
2022-11-17T11:16:21.462Z,96711.15
2022-11-17T11:18:53.276Z,96713.74
2022-11-17T11:21:27.032Z,96718.54
2022-11-17T11:23:54.925Z,96715.95
2022-11-17T11:26:42.561Z,96720.42
2022-11-17T11:29:28.711Z,96713.89
2022-11-17T11:32:16.731Z,96713.92
2022-11-17T11:35:21.925Z,96705.82
2022-11-17T11:38:02.188Z,96700.83
2022-11-17T11:40:36.238Z,96699.87
2022-11-17T11:43:34.280Z,96701.33
2022-11-17T11:46:16.309Z,96703.23
2022-11-17T11:48:47.103Z,96704.61
2022-11-17T11:51:19.203Z,96702.96
2022-11-17T11:53:56.175Z,96697.14
2022-11-17T11:56:36.247Z,96686.63
2022-11-17T11:59:12.413Z,96690.77
2022-11-17T12:02:14.025Z,96692.34
2022-11-17T12:05:25.906Z,96698.41
2022-11-17T12:08:18.462Z,96702.61
2022-11-17T12:11:26.657Z,96698.75
2022-11-17T12:13:57.239Z,96701.29
2022-11-17T12:16:33.382Z,96702.61
2022-11-17T12:19:01.828Z,96704.58
2022-11-17T12:21:30.675Z,96701.95
2022-11-17T12:24:17.528Z,96702.46
2022-11-17T12:26:45.498Z,96701.49
2022-11-17T12:29:22.244Z,96701.52
2022-11-17T12:31:52.262Z,96713.84
2022-11-17T12:34:23.788Z,96718.61
2022-11-17T12:37:13.194Z,96722.80
2022-11-17T12:39:53.300Z,96724.10
2022-11-17T12:42:21.383Z,96725.80
2022-11-17T12:44:55.425Z,96723.27
2022-11-17T12:47:30.769Z,96727.41
2022-11-17T12:50:17.512Z,96733.07
2022-11-17T12:53:04.074Z,96736.72
2022-11-17T12:55:34.935Z,96738.96
2022-11-17T12:58:10.665Z,96744.21
2022-11-17T13:00:56.066Z,96743.36
2022-11-17T13:03:39.202Z,96747.14
2022-11-17T13:09:08.107Z,96753.65
2022-11-17T13:11:36.343Z,96761.50
2022-11-17T13:14:10.521Z,96762.93
2022-11-17T13:16:44.382Z,96760.82
2022-11-17T13:19:31.360Z,96752.08
2022-11-17T13:22:11.437Z,96745.82
2022-11-17T13:24:41.554Z,96742.22
2022-11-17T13:27:28.964Z,96740.81
2022-11-17T13:30:30.126Z,96737.56
2022-11-17T13:33:01.532Z,96727.38
2022-11-17T13:35:30.757Z,96730.42
2022-11-17T13:38:04.490Z,96734.05
2022-11-17T13:40:34.976Z,96738.51
2022-11-17T13:43:04.922Z,96743.23
2022-11-17T13:45:33.226Z,96752.52
2022-11-17T13:48:01.256Z,96747.05
2022-11-17T13:50:32.059Z,96746.58
2022-11-17T13:53:00.923Z,96744.94
2022-11-17T13:55:29.426Z,96744.94
2022-11-17T13:58:07.110Z,96743.73
2022-11-17T14:00:35.018Z,96734.38
2022-11-17T14:03:39.234Z,96724.19
2022-11-17T14:06:13.355Z,96715.61
2022-11-17T14:08:43.915Z,96721.38
2022-11-17T14:11:11.828Z,96729.45
2022-11-17T14:13:43.783Z,96737.58
2022-11-17T14:16:25.226Z,96742.45
2022-11-17T14:19:02.437Z,96741.20
2022-11-17T14:21:31.463Z,96735.61
2022-11-17T14:24:04.276Z,96731.58
2022-11-17T14:26:32.307Z,96731.85
2022-11-17T14:29:02.896Z,96729.84
2022-11-17T14:31:31.673Z,96726.87
2022-11-17T14:33:59.951Z,96720.66
2022-11-17T14:36:28.280Z,96724.84
2022-11-17T14:38:56.354Z,96732.17
2022-11-17T14:41:24.314Z,96735.98
2022-11-17T14:43:52.346Z,96739.65
2022-11-17T14:46:25.539Z,96741.93
2022-11-17T14:48:55.585Z,96742.15
2022-11-17T14:51:23.794Z,96741.08
2022-11-17T14:53:52.527Z,96741.40
2022-11-17T14:56:23.929Z,96734.56
2022-11-17T14:58:59.693Z,96726.17
2022-11-17T15:01:31.120Z,96715.88
2022-11-17T15:04:15.508Z,96712.48
2022-11-17T15:06:49.438Z,96709.09
2022-11-17T15:09:17.389Z,96704.52
2022-11-17T15:11:45.239Z,96705.17
2022-11-17T15:14:13.970Z,96706.45
2022-11-17T15:16:42.298Z,96706.76
2022-11-17T15:19:10.234Z,96691.74
2022-11-17T15:21:38.188Z,96683.35
2022-11-17T15:24:06.549Z,96679.27
2022-11-17T15:26:35.858Z,96684.84
2022-11-17T15:29:03.757Z,96695.46
2022-11-17T15:31:36.827Z,96694.61
2022-11-17T15:34:04.748Z,96692.33
2022-11-17T15:36:32.856Z,96673.81
2022-11-17T15:39:00.782Z,96685.21
2022-11-17T15:41:32.807Z,96694.98
2022-11-17T15:44:01.129Z,96698.10
2022-11-17T15:46:34.680Z,96694.83
2022-11-17T15:49:07.145Z,96683.04
2022-11-17T15:51:40.590Z,96677.41
2022-11-17T15:54:19.973Z,96667.55
2022-11-17T15:56:54.117Z,96664.90
2022-11-17T15:59:27.610Z,96668.46
2022-11-17T16:02:08.650Z,96664.61
2022-11-17T16:04:44.768Z,96653.41
2022-11-17T16:07:12.774Z,96656.48
2022-11-17T16:10:00.079Z,96657.43
2022-11-17T16:12:49.755Z,96663.32
2022-11-17T16:15:17.717Z,96663.66
2022-11-17T16:17:45.670Z,96657.17
2022-11-17T16:20:13.969Z,96665.13
2022-11-17T16:23:07.308Z,96673.47
2022-11-17T16:25:48.389Z,96668.47
2022-11-17T16:28:17.465Z,96673.03
2022-11-17T16:30:45.453Z,96670.38
2022-11-17T16:33:18.948Z,96670.80
2022-11-17T16:35:51.439Z,96669.27
2022-11-17T16:38:23.899Z,96672.34
2022-11-17T16:41:02.444Z,96679.92
2022-11-17T16:43:37.952Z,96682.32
2022-11-17T16:46:18.668Z,96682.31
2022-11-17T16:48:53.192Z,96684.27
2022-11-17T16:51:25.566Z,96685.92
2022-11-17T16:54:11.501Z,96689.47
2022-11-17T16:56:48.071Z,96697.05
2022-11-17T16:59:22.521Z,96704.70
2022-11-17T17:01:58.612Z,96710.00
2022-11-17T17:04:32.425Z,96716.14
2022-11-17T17:07:07.457Z,96714.88
2022-11-17T17:09:37.895Z,96707.98
2022-11-17T17:12:08.079Z,96714.66
2022-11-17T17:14:36.016Z,96713.92
2022-11-17T17:17:08.986Z,96717.35
2022-11-17T17:19:37.346Z,96716.09
2022-11-17T17:22:05.238Z,96715.61
2022-11-17T17:24:38.396Z,96713.53
2022-11-17T17:27:07.396Z,96710.30
2022-11-17T17:29:35.523Z,96707.82
2022-11-17T17:32:03.850Z,96710.31
2022-11-17T17:34:31.941Z,96710.31
2022-11-17T17:37:07.916Z,96702.79
2022-11-17T17:39:35.815Z,96702.77
2022-11-17T17:42:03.891Z,96695.94
2022-11-17T17:44:31.801Z,96696.30
2022-11-17T17:46:59.823Z,96697.95
2022-11-17T17:49:27.997Z,96691.37
2022-11-17T17:51:55.958Z,96691.73
2022-11-17T17:54:24.190Z,96688.56
2022-11-17T17:56:52.891Z,96690.41
2022-11-17T17:59:20.826Z,96684.38
2022-11-17T18:01:49.749Z,96678.31
2022-11-17T18:04:24.884Z,96673.02
2022-11-17T18:06:52.975Z,96667.88
2022-11-17T18:09:21.341Z,96666.17
2022-11-17T18:11:50.523Z,96665.64
2022-11-17T18:14:24.299Z,96667.98
2022-11-17T18:16:54.153Z,96663.23
2022-11-17T18:19:25.724Z,96669.50
2022-11-17T18:21:56.317Z,96669.02
2022-11-17T18:24:24.369Z,96673.14
2022-11-17T18:26:52.287Z,96676.21
2022-11-17T18:29:20.414Z,96673.99
2022-11-17T18:31:49.485Z,96662.97
2022-11-17T18:34:23.165Z,96656.49
2022-11-17T18:36:53.538Z,96659.30
2022-11-17T18:39:22.141Z,96659.71
2022-11-17T18:41:50.080Z,96667.71
2022-11-17T18:44:23.592Z,96661.25
2022-11-17T18:46:51.762Z,96652.81
2022-11-17T18:49:20.027Z,96638.26
2022-11-17T18:51:49.631Z,96631.41
2022-11-17T18:54:17.695Z,96630.48
2022-11-17T18:56:45.722Z,96625.78
2022-11-17T18:59:13.730Z,96618.84
2022-11-17T19:01:43.172Z,96620.91
2022-11-17T19:04:14.897Z,96622.81
2022-11-17T19:06:43.059Z,96626.77
2022-11-17T19:09:11.763Z,96624.02
2022-11-17T19:11:39.979Z,96622.55
2022-11-17T19:14:07.910Z,96623.02
2022-11-17T19:16:44.393Z,96623.44
2022-11-17T19:19:14.442Z,96630.96
2022-11-17T19:21:43.289Z,96639.27
2022-11-17T19:24:11.733Z,96646.94
2022-11-17T19:26:40.132Z,96650.14
2022-11-17T19:29:16.607Z,96655.13
2022-11-17T19:31:47.047Z,96662.19
2022-11-17T19:34:16.021Z,96666.37
2022-11-17T19:36:44.983Z,96669.01
2022-11-17T19:39:14.250Z,96668.44
2022-11-17T19:41:43.786Z,96670.92
2022-11-17T19:44:11.856Z,96669.14
2022-11-17T19:46:39.904Z,96673.33
2022-11-17T19:49:08.820Z,96678.48
2022-11-17T19:51:37.355Z,96681.77
2022-11-17T19:54:07.917Z,96678.42
2022-11-17T19:56:36.749Z,96682.25
2022-11-17T19:59:06.201Z,96680.04
2022-11-17T20:01:34.469Z,96680.36
2022-11-17T20:04:02.489Z,96682.73
2022-11-17T20:06:37.148Z,96678.33
2022-11-17T20:09:15.052Z,96672.23
2022-11-17T20:11:43.420Z,96668.25
2022-11-17T20:14:11.547Z,96669.68
2022-11-17T20:16:39.615Z,96667.36
2022-11-17T20:19:13.861Z,96673.50
2022-11-17T20:21:41.918Z,96675.78
2022-11-17T20:24:09.985Z,96671.23
2022-11-17T20:26:40.746Z,96669.05
2022-11-17T20:29:08.930Z,96673.33
2022-11-17T20:31:37.056Z,96678.80
2022-11-17T20:34:05.688Z,96675.24
2022-11-17T20:36:35.347Z,96668.44
2022-11-17T20:39:06.510Z,96664.83
2022-11-17T20:41:34.532Z,96659.58
2022-11-17T20:44:03.454Z,96655.97
2022-11-17T20:46:31.835Z,96650.24
2022-11-17T20:48:59.875Z,96649.13
2022-11-17T20:51:27.932Z,96648.66
2022-11-17T20:53:55.871Z,96647.61
2022-11-17T20:56:23.891Z,96637.42
2022-11-17T20:58:52.006Z,96636.10
2022-11-17T21:01:22.704Z,96635.80
2022-11-17T21:03:50.762Z,96627.84
2022-11-17T21:06:20.234Z,96623.54
2022-11-17T21:08:48.164Z,96616.02
2022-11-17T21:11:37.585Z,96614.22
2022-11-17T21:14:07.632Z,96611.73
2022-11-17T21:16:37.787Z,96612.58
2022-11-17T21:19:06.559Z,96609.23
2022-11-17T21:21:35.143Z,96603.41
2022-11-17T21:24:03.117Z,96604.69
2022-11-17T21:26:31.299Z,96599.39
2022-11-17T21:29:05.973Z,96595.73
2022-11-17T21:31:34.500Z,96591.86
2022-11-17T21:34:04.714Z,96583.48
2022-11-17T21:36:34.046Z,96585.88
2022-11-17T21:39:16.818Z,96593.77
2022-11-17T21:41:45.509Z,96591.76
2022-11-17T21:44:14.293Z,96585.61
2022-11-17T21:46:42.393Z,96582.23
2022-11-17T21:49:10.313Z,96580.70
2022-11-17T21:51:38.782Z,96580.32
2022-11-17T21:54:09.837Z,96578.09
2022-11-17T21:56:38.087Z,96572.79
2022-11-17T21:59:11.266Z,96571.84
2022-11-17T22:01:40.042Z,96570.20
2022-11-17T22:04:08.268Z,96565.70
2022-11-17T22:06:38.402Z,96569.25
2022-11-17T22:09:06.410Z,96570.52
2022-11-17T22:11:37.765Z,96565.16
2022-11-17T22:14:17.123Z,96565.89
2022-11-17T22:16:51.515Z,96560.70
2022-11-17T22:19:21.634Z,96561.98
2022-11-17T22:21:51.768Z,96555.16
2022-11-17T22:24:20.371Z,96552.34
2022-11-17T22:26:48.386Z,96557.27
2022-11-17T22:29:20.157Z,96556.90
2022-11-17T22:31:49.257Z,96554.19
2022-11-17T22:34:18.197Z,96552.61
2022-11-17T22:36:46.535Z,96552.60
2022-11-17T22:39:16.049Z,96554.20
2022-11-17T22:41:44.167Z,96552.66
2022-11-17T22:44:14.059Z,96551.70
2022-11-17T22:46:43.319Z,96558.75
2022-11-17T22:49:11.932Z,96556.10
2022-11-17T22:51:58.609Z,96553.52
2022-11-17T22:54:26.556Z,96554.24
2022-11-17T22:56:54.515Z,96554.45
2022-11-17T22:59:23.506Z,96554.83
2022-11-17T23:01:51.389Z,96550.48
2022-11-17T23:04:19.731Z,96542.70
2022-11-17T23:06:47.616Z,96539.89
2022-11-17T23:09:15.988Z,96536.08
2022-11-17T23:11:44.127Z,96529.35
2022-11-17T23:14:14.439Z,96524.52
2022-11-17T23:16:42.603Z,96516.05
2022-11-17T23:19:14.567Z,96518.65
2022-11-17T23:21:42.730Z,96519.55
2022-11-17T23:24:12.829Z,96515.62
2022-11-17T23:26:42.352Z,96512.50
2022-11-17T23:29:10.556Z,96514.00
2022-11-17T23:31:38.536Z,96514.52
2022-11-17T23:34:09.732Z,96508.85
2022-11-17T23:36:37.696Z,96506.36
2022-11-17T23:39:05.606Z,96505.05
2022-11-17T23:41:33.539Z,96506.84
2022-11-17T23:44:01.511Z,96510.91
2022-11-17T23:46:29.489Z,96509.64
2022-11-17T23:48:57.492Z,96511.08
2022-11-17T23:51:26.612Z,96502.51
2022-11-17T23:53:57.672Z,96504.14
2022-11-17T23:56:26.245Z,96503.61
2022-11-17T23:58:54.304Z,96498.16
